Bean Station, TN (37708)

8:50 AM EDT on April 18, 2015 (GMT -0400)
Bean Station Cherokee Lake | | Change Station
CLOSE
Current Station
Personal Weather Station
Location: Bean Station, TN
Elevation: 1125 ft
Nearby Weather Stations
Active Advisory: Dense Fog Advisory

Elev 1125 ft 36.28 °N, 83.38 °W | Updated 11 seconds ago

Fog
Fog
59.2 °F
Feels Like 59.2 °F
N
0.0
Wind Variable Wind from South
Gusts 0.0 mph

Today
High -- | Low -- °F
--% Chance of Precip.
Yesterday
High -- | Low -- °F
Precip. -- in
6:56 AM 8:09 PM
Waning Crescent, 0% visible
Pressure 30.08 in
Visibility 2.0 miles
Clouds Mostly Cloudy 200 ft
Dew Point 59 °F
Humidity 99%
Rainfall 0.00 in
Snow Depth Not available.
UV 1.0 out of 12
Pollen 10.30 out of 12
Air Quality Not available.
Flu Activity Sporadic
METAR K0VG 181235Z AUTO 00000KT 2SM BR BKN002 13/13 A3008 RMK AO2

More Conditions Fewer Conditions

Pressure 30.08 in
Visibility 2.0 miles
Clouds Mostly Cloudy 200 ft
Dew Point 59 °F
Humidity 99%
Rainfall 0.00 in
Snow Depth Not available.
UV 1.0 out of 12
Pollen 10.30 out of 12
Air Quality Not available.
Flu Activity Sporadic
METAR K0VG 181235Z AUTO 00000KT 2SM BR BKN002 13/13 A3008 RMK AO2

More Conditions Fewer Conditions

10-Day Weather Forecast

Almanac

Astronomy

Apr. 18, 2015 Rise Set
Actual Time
Civil Twilight
Nautical Twilight
Astronomical Twilight
Moon
Length of Visible Light
Length of Day
Tomorrow will be .
, % of the Moon is Illuminated

Today's Extremes

State Highs State Lows

Community

WunderPhotos

Upload Photos

1,814,377 photos uploaded!

WunderBlogs® & News

Nearby

Air Quality

  Air Quality AQ Index Pollutant
Not available.

Snow Depth

Station Depth Elevation

Earthquake Activity

City Distance Mag. Time & Date
Minimum magnitude displayed is 2.5.

Coastal Water Temperatures

Place Temperature

Stations

Nearby Weather Stations

Station Location Temp. Windchill Dew Point Humidity Wind Precip. Elev Updated Type
                   
Dense Fog Advisory
Statement as of 6:03 AM EDT on April 18, 2015

... Dense fog advisory in effect until 9 am EDT /8 am CDT/ this
morning...

The National Weather Service in Morristown has issued a dense fog
advisory... which is in effect until 9 am EDT /8 am CDT/ this
morning.

* Event... fog will reduce visibility to a quarter mile or less in
many locations.

* Timing... the fog will begin to lift around 9 am EDT.

* Impacts... with reduced visibility... drivers should use caution.

Precautionary/preparedness actions...

A dense fog advisory means dense fog will frequently reduce
visibility to one quarter mile or less. If driving... slow down...
use your headlights... and leave plenty of distance between you
and the vehicle ahead of you.